Time;durP1;ratioP1;P1;durP2;ratioP2;P2;SDS_P1;SDS_P2;PMS_P1;PMS_P2;Temp;Humidity;BMP_temperature;BMP_pressure;BME280_temperature;BME280_humidity;BME280_pressure;Samples;Min_cycle;Max_cycle;Signal;HPM_P1;HPM_P2
2022/09/17 00:00:57;;;;;;;11.80;1.90;;;13.00;99.90;;;;;;4992387;28;20030;-83
2022/09/17 00:03:24;;;;;;;6.65;2.28;;;13.00;99.90;;;;;;4992426;28;20129;-83
2022/09/17 00:05:59;;;;;;;7.22;1.63;;;13.00;99.90;;;;;;4993449;28;20023;-83
2022/09/17 00:08:25;;;;;;;7.18;1.60;;;13.00;99.90;;;;;;4993768;28;20030;-83
2022/09/17 00:10:50;;;;;;;8.48;1.60;;;13.00;99.90;;;;;;4993293;28;20026;-83
2022/09/17 00:13:16;;;;;;;8.60;2.22;;;13.00;99.90;;;;;;4993483;28;20046;-83
2022/09/17 00:15:44;;;;;;;7.25;2.00;;;13.10;99.90;;;;;;4993118;28;20034;-82
2022/09/17 00:18:10;;;;;;;9.20;2.08;;;13.00;99.90;;;;;;4993382;28;20105;-83
2022/09/17 00:20:44;;;;;;;8.35;2.25;;;13.00;99.90;;;;;;4993018;28;20035;-83
2022/09/17 00:23:11;;;;;;;9.73;2.40;;;13.10;99.90;;;;;;4992605;28;20394;-83
2022/09/17 00:25:42;;;;;;;8.25;1.73;;;13.00;99.90;;;;;;4975509;28;20042;-83
2022/09/17 00:28:08;;;;;;;10.75;2.10;;;13.00;99.90;;;;;;4991842;28;20169;-83
2022/09/17 00:30:34;;;;;;;11.52;2.33;;;13.00;99.90;;;;;;4991747;28;20117;-83
2022/09/17 00:33:00;;;;;;;10.48;1.92;;;13.00;99.90;;;;;;4992926;28;20441;-83
2022/09/17 00:35:26;;;;;;;11.07;1.98;;;13.00;99.90;;;;;;4993138;28;20030;-83
2022/09/17 00:37:53;;;;;;;9.38;1.58;;;13.00;99.90;;;;;;4993178;28;20034;-83
2022/09/17 00:40:19;;;;;;;10.00;1.63;;;13.00;99.90;;;;;;4992847;28;20399;-83
2022/09/17 00:42:45;;;;;;;6.60;1.65;;;12.90;99.90;;;;;;4991793;28;20468;-83
2022/09/17 00:45:12;;;;;;;7.95;1.90;;;13.00;99.90;;;;;;4992866;28;20030;-83
2022/09/17 00:47:45;;;;;;;9.52;2.17;;;12.90;99.90;;;;;;4991333;28;20077;-83
2022/09/17 00:50:20;;;;;;;8.60;2.13;;;12.90;99.90;;;;;;4992562;28;20089;-83
2022/09/17 00:52:54;;;;;;;11.88;1.90;;;12.90;99.90;;;;;;4992852;28;20035;-83
2022/09/17 00:55:30;;;;;;;11.45;1.80;;;12.90;99.90;;;;;;4992717;28;20031;-83
2022/09/17 00:57:58;;;;;;;10.27;1.90;;;12.80;99.90;;;;;;4992473;28;20030;-83
2022/09/17 01:00:25;;;;;;;7.27;1.60;;;12.90;99.90;;;;;;4992307;28;20506;-83
2022/09/17 01:02:52;;;;;;;11.98;2.03;;;12.90;99.90;;;;;;4992511;28;20077;-83
2022/09/17 01:05:30;;;;;;;17.25;2.40;;;12.80;99.90;;;;;;4992605;28;20089;-83
2022/09/17 01:08:26;;;;;;;13.23;2.72;;;12.80;99.90;;;;;;4992709;28;20030;-83
2022/09/17 01:11:05;;;;;;;7.80;1.52;;;12.80;99.90;;;;;;4991739;28;20053;-83
2022/09/17 01:13:53;;;;;;;8.75;1.58;;;12.80;99.90;;;;;;4992358;28;20034;-83
2022/09/17 01:16:42;;;;;;;8.05;1.73;;;12.80;99.90;;;;;;4991925;28;20034;-83
2022/09/17 01:19:29;;;;;;;7.05;1.77;;;12.80;99.90;;;;;;4992134;28;20550;-83
2022/09/17 01:21:58;;;;;;;7.68;1.70;;;12.80;99.90;;;;;;4992231;28;20088;-83
2022/09/17 01:24:54;;;;;;;8.43;1.80;;;12.80;99.90;;;;;;4991963;28;20124;-83
2022/09/17 01:27:38;;;;;;;8.65;1.65;;;12.80;99.90;;;;;;4991856;28;20053;-83
2022/09/17 01:30:31;;;;;;;9.60;1.95;;;12.80;99.90;;;;;;4992013;28;20034;-83
2022/09/17 01:33:07;;;;;;;11.90;1.70;;;12.80;99.90;;;;;;4992087;28;20041;-83
2022/09/17 01:35:56;;;;;;;10.32;1.75;;;12.70;99.90;;;;;;4990923;28;20471;-83
2022/09/17 01:38:27;;;;;;;7.03;1.80;;;12.80;99.90;;;;;;4991939;28;20447;-83
2022/09/17 01:41:05;;;;;;;11.25;1.90;;;12.80;99.90;;;;;;4991768;28;20034;-83
2022/09/17 01:43:54;;;;;;;12.10;1.95;;;12.80;99.90;;;;;;4990668;28;20034;-83
2022/09/17 01:46:54;;;;;;;14.35;2.17;;;12.80;99.90;;;;;;4982360;28;20566;-83
2022/09/17 01:49:24;;;;;;;12.93;2.42;;;12.70;99.90;;;;;;4958467;28;20121;-83
2022/09/17 01:51:51;;;;;;;10.85;2.20;;;12.80;99.90;;;;;;4991779;28;20394;-83
2022/09/17 01:54:20;;;;;;;9.13;2.00;;;12.80;99.90;;;;;;4991550;28;20030;-83
2022/09/17 01:57:03;;;;;;;12.20;2.00;;;12.70;99.90;;;;;;4991544;28;20371;-83
2022/09/17 01:59:54;;;;;;;8.60;2.50;;;12.70;99.90;;;;;;4991449;28;20034;-83
2022/09/17 02:02:31;;;;;;;14.15;3.38;;;12.70;99.90;;;;;;4991630;28;20428;-83
2022/09/17 02:05:07;;;;;;;8.65;1.80;;;12.80;99.90;;;;;;4991525;28;20038;-83
2022/09/17 02:07:39;;;;;;;9.15;1.95;;;12.70;99.90;;;;;;4991494;28;20026;-83
2022/09/17 02:10:11;;;;;;;9.25;2.28;;;12.80;99.90;;;;;;4991379;28;20033;-83
2022/09/17 02:12:44;;;;;;;8.32;2.13;;;12.80;99.90;;;;;;4990345;28;20413;-83
2022/09/17 02:15:17;;;;;;;11.55;1.95;;;12.70;99.90;;;;;;4991210;28;20402;-83
2022/09/17 02:18:02;;;;;;;8.73;2.03;;;12.80;99.90;;;;;;4991212;28;20049;-83
2022/09/17 02:20:41;;;;;;;10.05;2.50;;;12.80;99.90;;;;;;4991150;28;20034;-83
2022/09/17 02:23:17;;;;;;;11.88;2.70;;;12.80;99.90;;;;;;4991800;28;20037;-83
2022/09/17 02:26:08;;;;;;;8.45;2.15;;;12.80;99.90;;;;;;4991245;28;20030;-83
2022/09/17 02:28:47;;;;;;;15.52;2.47;;;12.80;99.90;;;;;;4991351;28;20022;-83
2022/09/17 02:31:13;;;;;;;8.65;2.08;;;12.80;99.90;;;;;;4991476;28;20022;-83
2022/09/17 02:33:41;;;;;;;9.65;2.20;;;12.80;99.90;;;;;;4991473;28;20395;-83
2022/09/17 02:36:07;;;;;;;12.23;2.20;;;12.70;99.90;;;;;;4991022;28;20112;-83
2022/09/17 02:38:33;;;;;;;12.73;3.08;;;12.80;99.90;;;;;;4989942;28;20038;-83
2022/09/17 02:41:16;;;;;;;7.55;1.70;;;12.80;99.90;;;;;;4991297;28;20027;-83
2022/09/17 02:44:12;;;;;;;15.05;2.00;;;12.80;99.90;;;;;;4991197;28;20030;-83
2022/09/17 02:47:03;;;;;;;16.63;2.15;;;12.80;99.90;;;;;;4992425;28;20490;-83
2022/09/17 02:49:31;;;;;;;13.70;2.40;;;12.70;99.90;;;;;;4993647;28;20029;-82
2022/09/17 02:52:15;;;;;;;14.63;2.42;;;12.70;99.90;;;;;;4995122;28;20122;-83
2022/09/17 02:54:49;;;;;;;10.25;1.85;;;12.70;99.90;;;;;;4994819;28;20034;-82
2022/09/17 02:58:06;;;;;;;11.52;2.30;;;12.70;99.90;;;;;;4993837;28;20041;-82
2022/09/17 03:00:32;;;;;;;11.35;2.22;;;12.70;99.90;;;;;;4969399;28;20042;-83
2022/09/17 03:03:07;;;;;;;12.88;2.92;;;12.70;99.90;;;;;;4994617;28;20030;-82
2022/09/17 03:05:35;;;;;;;12.75;2.50;;;12.70;99.90;;;;;;4994954;28;20122;-82
2022/09/17 03:08:01;;;;;;;13.88;2.47;;;12.70;99.90;;;;;;4994723;28;20114;-83
2022/09/17 03:10:29;;;;;;;12.88;2.10;;;12.70;99.90;;;;;;4994424;28;20092;-82
2022/09/17 03:12:55;;;;;;;10.82;2.13;;;12.60;99.90;;;;;;5009995;28;20337;-83
2022/09/17 03:15:21;;;;;;;10.35;2.42;;;12.60;99.90;;;;;;4994464;28;20078;-83
2022/09/17 03:17:46;;;;;;;9.00;2.10;;;12.60;99.90;;;;;;4994411;28;20077;-83
2022/09/17 03:20:14;;;;;;;10.85;2.10;;;12.60;99.90;;;;;;4994686;28;20035;-82
2022/09/17 03:22:41;;;;;;;8.13;2.13;;;12.60;99.90;;;;;;4994449;28;20038;-82
2022/09/17 03:25:07;;;;;;;13.07;1.95;;;12.60;99.90;;;;;;4993177;28;20125;-82
2022/09/17 03:27:33;;;;;;;14.13;2.30;;;12.60;99.90;;;;;;4994280;28;20027;-82
2022/09/17 03:29:58;;;;;;;11.50;2.05;;;12.60;99.90;;;;;;4994241;28;20106;-82
2022/09/17 03:32:24;;;;;;;18.80;2.80;;;12.60;99.90;;;;;;4994315;28;20034;-82
2022/09/17 03:34:50;;;;;;;8.95;2.00;;;12.70;99.90;;;;;;4994286;28;20033;-83
2022/09/17 03:37:16;;;;;;;9.77;2.25;;;12.70;99.90;;;;;;4994232;28;20023;-83
2022/09/17 03:39:41;;;;;;;13.27;2.42;;;12.70;99.90;;;;;;4994189;28;20041;-82
2022/09/17 03:42:07;;;;;;;12.93;2.17;;;12.70;99.90;;;;;;4994333;28;20037;-82
2022/09/17 03:44:33;;;;;;;8.95;2.35;;;12.70;99.90;;;;;;4994063;28;20038;-82
2022/09/17 03:46:59;;;;;;;8.45;2.20;;;12.70;99.90;;;;;;4993978;28;20038;-82
2022/09/17 03:49:24;;;;;;;11.18;1.60;;;12.70;99.90;;;;;;4993944;28;20026;-82
2022/09/17 03:51:50;;;;;;;11.00;2.20;;;12.70;99.90;;;;;;4994403;28;20030;-82
2022/09/17 03:54:16;;;;;;;14.00;1.88;;;12.80;99.90;;;;;;4994076;28;20503;-82
2022/09/17 03:56:42;;;;;;;13.30;3.15;;;12.80;99.90;;;;;;4993940;28;20494;-82
2022/09/17 03:59:08;;;;;;;20.45;5.25;;;12.80;99.90;;;;;;4992915;28;20391;-83
2022/09/17 04:01:34;;;;;;;21.80;6.65;;;12.70;99.90;;;;;;4993936;28;20045;-82
2022/09/17 04:04:01;;;;;;;23.85;7.30;;;12.70;99.90;;;;;;4994213;28;20078;-82
2022/09/17 04:06:26;;;;;;;22.33;6.00;;;12.80;99.90;;;;;;4976419;28;20026;-83
2022/09/17 04:08:52;;;;;;;23.95;6.45;;;12.70;99.90;;;;;;4992636;28;20056;-82
2022/09/17 04:11:18;;;;;;;23.43;5.90;;;12.70;99.90;;;;;;4992612;28;20037;-83
2022/09/17 04:13:44;;;;;;;19.85;5.28;;;12.70;99.90;;;;;;4993817;28;20038;-83
2022/09/17 04:16:10;;;;;;;23.40;5.90;;;12.70;99.90;;;;;;4993419;28;20034;-83
2022/09/17 04:18:36;;;;;;;24.08;6.85;;;12.70;99.90;;;;;;4993533;28;20038;-82
2022/09/17 04:21:02;;;;;;;34.35;10.18;;;12.70;99.90;;;;;;4993705;28;20030;-82
2022/09/17 04:23:28;;;;;;;31.33;10.32;;;12.70;99.90;;;;;;4993652;28;20041;-82
2022/09/17 04:25:53;;;;;;;27.10;8.80;;;12.70;99.90;;;;;;4993352;28;20390;-83
2022/09/17 04:28:19;;;;;;;29.13;8.93;;;12.70;99.90;;;;;;4993594;28;20548;-82
2022/09/17 04:30:47;;;;;;;34.95;11.30;;;12.60;99.90;;;;;;4993477;28;20034;-83
2022/09/17 04:33:13;;;;;;;32.63;9.37;;;12.60;99.90;;;;;;4993429;28;20509;-82
2022/09/17 04:35:39;;;;;;;23.30;7.20;;;12.60;99.90;;;;;;4993299;28;20117;-82
2022/09/17 04:38:04;;;;;;;18.45;6.22;;;12.60;99.90;;;;;;4992210;28;20034;-82
2022/09/17 04:40:30;;;;;;;17.37;4.23;;;12.60;99.90;;;;;;4991841;28;20026;-82
2022/09/17 04:42:58;;;;;;;12.70;2.60;;;12.60;99.90;;;;;;4993254;28;20521;-82
2022/09/17 04:45:24;;;;;;;15.13;2.88;;;12.60;99.90;;;;;;4992032;28;20038;-82
2022/09/17 04:47:50;;;;;;;17.60;2.93;;;12.60;99.90;;;;;;4993233;28;20033;-82
2022/09/17 04:50:17;;;;;;;12.07;2.78;;;12.50;99.90;;;;;;4992914;28;20030;-83
2022/09/17 04:52:44;;;;;;;12.30;2.47;;;12.50;99.90;;;;;;4993060;28;20042;-83
2022/09/17 04:55:10;;;;;;;10.80;2.58;;;12.50;99.90;;;;;;4993039;28;20438;-82
2022/09/17 04:57:36;;;;;;;11.57;1.90;;;12.50;99.90;;;;;;4992799;28;20117;-82
2022/09/17 05:00:05;;;;;;;16.15;2.10;;;12.50;99.90;;;;;;4992763;28;20116;-82
2022/09/17 05:02:31;;;;;;;10.63;2.35;;;12.50;99.90;;;;;;4991735;28;20030;-82
2022/09/17 05:04:58;;;;;;;11.88;1.88;;;12.50;99.90;;;;;;4992745;28;20096;-83
2022/09/17 05:07:24;;;;;;;10.35;1.77;;;12.50;99.90;;;;;;4992659;28;20030;-83
2022/09/17 05:09:50;;;;;;;12.60;1.95;;;12.40;99.90;;;;;;4992240;28;20077;-83
2022/09/17 05:12:15;;;;;;;9.27;1.53;;;12.40;99.90;;;;;;4992692;28;20034;-83
2022/09/17 05:14:41;;;;;;;12.77;2.50;;;12.40;99.90;;;;;;4992604;28;20042;-82
2022/09/17 05:17:07;;;;;;;11.85;1.95;;;12.30;99.90;;;;;;4992492;28;20026;-82
2022/09/17 05:19:32;;;;;;;10.07;2.00;;;12.40;99.90;;;;;;4992068;28;20026;-82
2022/09/17 05:21:58;;;;;;;10.80;1.97;;;12.40;99.90;;;;;;4992377;28;20034;-83
2022/09/17 05:24:24;;;;;;;13.23;1.80;;;12.30;99.90;;;;;;4992036;28;20387;-82
2022/09/17 05:26:49;;;;;;;10.00;1.80;;;12.30;99.90;;;;;;4991798;28;20022;-83
2022/09/17 05:29:15;;;;;;;10.07;2.20;;;12.30;99.90;;;;;;4991894;28;20027;-83
2022/09/17 05:31:41;;;;;;;17.77;2.37;;;12.30;99.90;;;;;;4991854;28;20023;-82
2022/09/17 05:34:08;;;;;;;13.87;2.33;;;12.30;99.90;;;;;;4991980;28;20434;-82
2022/09/17 05:36:33;;;;;;;12.70;2.40;;;12.30;99.90;;;;;;4990579;28;20063;-83
2022/09/17 05:38:59;;;;;;;11.93;2.37;;;12.30;99.90;;;;;;4990562;28;20042;-83
2022/09/17 05:41:25;;;;;;;14.53;2.30;;;12.30;99.90;;;;;;4991822;28;20041;-82
2022/09/17 05:43:50;;;;;;;15.70;2.60;;;12.40;99.90;;;;;;4991763;28;20034;-82
2022/09/17 05:46:16;;;;;;;12.82;2.60;;;12.40;99.90;;;;;;4991654;28;20394;-82
2022/09/17 05:48:42;;;;;;;10.15;2.30;;;12.40;99.90;;;;;;4990295;28;20077;-83
2022/09/17 05:51:09;;;;;;;11.02;2.35;;;12.40;99.90;;;;;;4991746;28;20105;-82
2022/09/17 05:53:35;;;;;;;15.80;2.73;;;12.30;99.90;;;;;;4990416;28;20038;-82
2022/09/17 05:56:01;;;;;;;10.43;2.13;;;12.30;99.90;;;;;;4991286;28;20042;-82
2022/09/17 05:58:28;;;;;;;11.27;1.90;;;12.30;99.90;;;;;;4991718;28;20048;-82
2022/09/17 06:00:54;;;;;;;12.10;2.03;;;12.30;99.90;;;;;;4991623;28;20497;-82
2022/09/17 06:03:23;;;;;;;5.80;1.10;;;12.30;99.90;;;;;;4991663;28;20510;-82
2022/09/17 06:05:54;;;;;;;14.48;2.10;;;12.40;99.90;;;;;;4991354;28;20030;-83
2022/09/17 06:08:20;;;;;;;8.17;1.33;;;12.40;99.90;;;;;;4991488;28;20129;-82
2022/09/17 06:10:46;;;;;;;9.57;1.73;;;12.40;99.90;;;;;;4991650;28;20041;-82
2022/09/17 06:13:11;;;;;;;11.40;2.03;;;12.40;99.90;;;;;;4990479;28;20403;-83
2022/09/17 06:15:37;;;;;;;13.45;1.98;;;12.30;99.90;;;;;;4991181;28;20038;-83
2022/09/17 06:18:03;;;;;;;9.55;1.65;;;12.40;99.90;;;;;;4991503;28;20037;-82
2022/09/17 06:20:29;;;;;;;15.30;3.10;;;12.40;99.90;;;;;;4991886;28;20030;-83
2022/09/17 06:22:56;;;;;;;9.20;1.90;;;12.40;99.90;;;;;;4997702;28;20117;-83
2022/09/17 06:25:22;;;;;;;9.00;1.90;;;12.40;99.90;;;;;;4996788;28;20065;-82
2022/09/17 06:27:48;;;;;;;10.70;1.57;;;12.40;99.90;;;;;;4997717;28;20053;-82
2022/09/17 06:30:14;;;;;;;9.32;2.10;;;12.40;99.90;;;;;;4996356;28;20395;-82
2022/09/17 06:32:40;;;;;;;10.88;2.08;;;12.30;99.90;;;;;;4997800;28;20022;-82
2022/09/17 06:35:06;;;;;;;10.18;1.95;;;12.40;99.90;;;;;;4997799;28;20452;-82
2022/09/17 06:37:32;;;;;;;7.60;1.48;;;12.30;99.90;;;;;;4996311;28;20033;-82
2022/09/17 06:39:58;;;;;;;8.85;2.20;;;12.40;99.90;;;;;;4997453;28;20038;-83
2022/09/17 06:42:25;;;;;;;14.40;3.15;;;12.40;99.90;;;;;;4998047;28;20022;-82
2022/09/17 06:44:51;;;;;;;17.17;5.07;;;12.40;99.90;;;;;;4998008;28;20291;-83
2022/09/17 06:47:17;;;;;;;14.80;3.87;;;12.40;99.90;;;;;;4997684;28;20105;-82
2022/09/17 06:49:42;;;;;;;21.88;5.10;;;12.40;99.90;;;;;;4997818;28;20030;-82
2022/09/17 06:52:08;;;;;;;23.17;6.83;;;12.40;99.90;;;;;;4997622;28;20023;-82
2022/09/17 06:54:34;;;;;;;25.73;8.05;;;12.40;99.90;;;;;;4997441;28;20042;-83
2022/09/17 06:56:59;;;;;;;25.23;8.17;;;12.50;99.90;;;;;;4997489;28;20038;-83
2022/09/17 06:59:26;;;;;;;37.78;10.45;;;12.40;99.90;;;;;;4997929;28;20073;-82
2022/09/17 07:01:51;;;;;;;22.63;7.32;;;12.50;99.90;;;;;;4996350;28;20034;-82
2022/09/17 07:04:17;;;;;;;19.00;4.43;;;12.50;99.90;;;;;;4996159;28;20099;-82
2022/09/17 07:06:44;;;;;;;12.30;2.80;;;12.50;99.90;;;;;;4997299;28;20037;-83
2022/09/17 07:09:10;;;;;;;11.68;3.20;;;12.50;99.90;;;;;;4997307;28;20092;-83
2022/09/17 07:11:37;;;;;;;12.77;2.15;;;12.50;99.90;;;;;;5012585;28;20091;-82
2022/09/17 07:14:04;;;;;;;8.80;1.90;;;12.50;99.90;;;;;;4996312;28;20049;-82
2022/09/17 07:16:34;;;;;;;12.37;2.53;;;12.50;99.90;;;;;;4995954;28;20031;-82
2022/09/17 07:19:03;;;;;;;10.77;2.25;;;12.60;99.90;;;;;;4997298;28;20037;-82
2022/09/17 07:21:29;;;;;;;18.33;4.30;;;12.50;99.90;;;;;;4997317;28;20077;-82
2022/09/17 07:23:55;;;;;;;15.88;4.20;;;12.50;99.90;;;;;;4997454;28;20073;-82
2022/09/17 07:26:20;;;;;;;16.98;4.85;;;12.60;99.90;;;;;;4997292;28;20022;-82
2022/09/17 07:28:46;;;;;;;15.68;3.60;;;12.60;99.90;;;;;;4996054;28;20156;-82
2022/09/17 07:31:13;;;;;;;12.98;2.83;;;12.70;99.90;;;;;;4997359;28;20030;-83
2022/09/17 07:33:40;;;;;;;14.73;2.97;;;12.70;99.90;;;;;;4993708;28;20475;-83
2022/09/17 07:36:09;;;;;;;7.68;1.92;;;12.70;99.90;;;;;;4993953;28;20041;-82
2022/09/17 07:38:35;;;;;;;;;;;12.70;99.90;;;;;;4994922;28;20061;-83
2022/09/17 07:41:01;;;;;;;7.23;1.90;;;12.70;99.90;;;;;;4994222;28;20366;-82
2022/09/17 07:43:30;;;;;;;6.57;1.27;;;12.70;99.90;;;;;;4993109;28;20034;-82
2022/09/17 07:45:57;;;;;;;10.00;1.52;;;12.80;99.90;;;;;;4993951;28;20088;-82
2022/09/17 07:48:23;;;;;;;9.10;2.03;;;12.80;99.90;;;;;;4994071;28;20526;-83
2022/09/17 07:50:49;;;;;;;11.30;1.60;;;12.80;99.90;;;;;;4993904;28;20125;-83
2022/09/17 07:53:15;;;;;;;9.65;1.33;;;12.80;99.90;;;;;;4992706;28;20565;-83
2022/09/17 07:55:41;;;;;;;13.07;2.13;;;12.80;99.90;;;;;;4993724;28;20037;-83
2022/09/17 07:58:07;;;;;;;9.50;1.50;;;12.90;99.90;;;;;;4994057;28;20034;-83
2022/09/17 08:00:33;;;;;;;6.93;1.25;;;12.90;99.90;;;;;;4993739;28;20130;-83
2022/09/17 08:02:59;;;;;;;4.47;1.20;;;13.00;99.90;;;;;;4993913;28;20113;-83
2022/09/17 08:05:26;;;;;;;9.18;1.80;;;13.00;99.90;;;;;;4993829;28;20126;-83
2022/09/17 08:07:53;;;;;;;9.02;1.98;;;13.10;99.90;;;;;;4992465;28;20037;-82
2022/09/17 08:10:21;;;;;;;7.60;1.60;;;13.10;99.90;;;;;;4993665;28;20502;-83
2022/09/17 08:12:54;;;;;;;9.57;2.47;;;13.10;99.90;;;;;;4993826;28;20061;-83
2022/09/17 08:15:20;;;;;;;8.30;1.38;;;13.20;99.90;;;;;;4992216;28;20089;-83
2022/09/17 08:17:46;;;;;;;15.43;2.75;;;13.20;99.90;;;;;;4993310;28;20027;-83
2022/09/17 08:20:13;;;;;;;8.35;1.70;;;13.30;99.90;;;;;;4993393;28;20030;-83
2022/09/17 08:22:38;;;;;;;8.15;2.00;;;13.30;99.90;;;;;;4993578;28;20034;-83
2022/09/17 08:25:06;;;;;;;9.38;1.92;;;13.30;99.90;;;;;;4992289;28;20084;-83
2022/09/17 08:27:32;;;;;;;9.10;1.70;;;13.40;99.90;;;;;;4993936;28;20467;-83
2022/09/17 08:29:57;;;;;;;13.15;3.25;;;13.40;99.90;;;;;;4993571;28;20030;-82
2022/09/17 08:32:24;;;;;;;10.77;3.20;;;13.50;99.90;;;;;;4993398;28;20491;-83
2022/09/17 08:34:49;;;;;;;14.68;2.97;;;13.50;99.90;;;;;;4993253;28;20030;-83
2022/09/17 08:37:15;;;;;;;6.57;1.50;;;13.50;99.90;;;;;;4993073;28;20438;-83
2022/09/17 08:39:41;;;;;;;8.93;1.88;;;13.60;99.90;;;;;;4993177;28;20065;-83
2022/09/17 08:42:35;;;;;;;8.65;1.83;;;13.70;99.90;;;;;;4993470;28;20026;-83
2022/09/17 08:45:04;;;;;;;7.43;1.30;;;13.70;99.90;;;;;;4992604;28;20038;-83
2022/09/17 08:47:44;;;;;;;7.45;1.38;;;13.70;99.90;;;;;;4993005;28;20395;-83
2022/09/17 08:50:18;;;;;;;8.98;1.85;;;13.70;99.90;;;;;;4992933;28;20089;-83
2022/09/17 08:52:53;;;;;;;7.07;1.40;;;13.80;99.90;;;;;;4993614;28;20050;-83
2022/09/17 08:55:30;;;;;;;7.57;1.00;;;13.80;99.90;;;;;;4991848;28;20030;-83
2022/09/17 08:58:29;;;;;;;8.00;1.35;;;13.90;99.90;;;;;;4991504;28;20026;-83
2022/09/17 09:01:21;;;;;;;10.27;1.33;;;13.90;99.50;;;;;;4993047;28;20284;-83
2022/09/17 09:04:34;;;;;;;6.15;1.38;;;14.00;99.30;;;;;;4992843;28;20083;-83
2022/09/17 09:07:18;;;;;;;4.70;1.08;;;14.00;99.20;;;;;;4932443;29;20056;-83
2022/09/17 09:09:55;;;;;;;12.80;1.85;;;14.10;99.10;;;;;;4992311;28;20070;-83
2022/09/17 09:12:27;;;;;;;9.02;1.27;;;14.20;99.10;;;;;;4992788;28;20064;-83
2022/09/17 09:15:02;;;;;;;6.55;1.45;;;14.20;99.00;;;;;;5009637;22;20119;-86
2022/09/17 09:17:37;;;;;;;3.90;0.90;;;14.20;98.40;;;;;;4993915;28;20033;-86
2022/09/17 09:20:04;;;;;;;5.00;0.98;;;14.10;98.20;;;;;;5011777;28;20062;-86
2022/09/17 09:22:50;;;;;;;7.70;1.30;;;14.20;98.40;;;;;;4994741;28;20458;-86
2022/09/17 09:25:22;;;;;;;5.50;1.08;;;14.30;98.20;;;;;;5012043;28;20026;-86
2022/09/17 09:28:18;;;;;;;10.05;1.45;;;14.30;98.00;;;;;;5011564;28;20030;-87
2022/09/17 09:30:52;;;;;;;7.32;1.25;;;14.30;98.50;;;;;;5011927;28;20061;-87
2022/09/17 09:33:26;;;;;;;5.57;1.02;;;14.30;98.30;;;;;;4994785;28;20064;-86
2022/09/17 09:35:52;;;;;;;9.27;1.20;;;14.30;98.00;;;;;;4994175;28;20095;-86
2022/09/17 09:38:33;;;;;;;4.68;1.00;;;14.40;97.90;;;;;;4994373;28;20541;-86
2022/09/17 09:41:10;;;;;;;11.20;1.50;;;14.40;97.50;;;;;;5012074;28;20030;-86
2022/09/17 09:44:09;;;;;;;7.22;1.33;;;14.40;97.40;;;;;;5011875;28;20467;-86
2022/09/17 09:46:44;;;;;;;4.95;1.10;;;14.40;97.70;;;;;;5011713;28;20079;-87
2022/09/17 09:49:34;;;;;;;8.73;1.45;;;14.40;97.10;;;;;;4994126;28;20050;-86
2022/09/17 09:52:23;;;;;;;4.18;1.02;;;14.50;96.70;;;;;;4994373;28;20022;-86
2022/09/17 09:55:26;;;;;;;5.38;1.05;;;14.40;96.90;;;;;;5011641;28;20109;-86
2022/09/17 09:57:57;;;;;;;8.90;1.50;;;14.40;97.40;;;;;;5012365;28;20033;-86
2022/09/17 10:00:36;;;;;;;7.85;1.65;;;14.50;96.70;;;;;;4994526;28;20034;-87
2022/09/17 10:03:21;;;;;;;6.07;0.90;;;14.50;96.40;;;;;;4994360;28;20483;-87
2022/09/17 10:05:56;;;;;;;7.22;1.60;;;14.60;96.00;;;;;;5012800;28;20030;-87
2022/09/17 10:08:23;;;;;;;8.30;1.30;;;14.70;96.00;;;;;;5013672;28;20056;-88
2022/09/17 10:11:05;;;;;;;7.47;1.00;;;14.70;97.50;;;;;;4995303;28;20026;-86
2022/09/17 10:13:36;;;;;;;6.30;1.80;;;14.60;99.10;;;;;;4995206;28;20049;-87
2022/09/17 10:16:16;;;;;;;7.78;1.15;;;14.50;99.20;;;;;;4994166;28;20033;-88
2022/09/17 10:19:04;;;;;;;8.55;2.58;;;14.40;99.80;;;;;;4994481;28;20490;-88
2022/09/17 10:21:41;;;;;;;8.57;2.45;;;14.30;99.90;;;;;;4993945;28;20061;-88
2022/09/17 10:24:33;;;;;;;7.88;2.10;;;14.30;99.90;;;;;;5009906;28;20044;-88
2022/09/17 10:27:11;;;;;;;7.82;2.13;;;14.30;99.90;;;;;;5012203;28;20026;-87
2022/09/17 10:29:45;;;;;;;8.80;1.80;;;14.30;99.90;;;;;;4994501;28;20033;-85
2022/09/17 10:32:20;;;;;;;9.15;1.40;;;14.40;99.90;;;;;;5011413;28;20379;-86
2022/09/17 10:35:03;;;;;;;6.13;1.40;;;14.40;99.90;;;;;;5011447;28;20116;-86
2022/09/17 10:37:43;;;;;;;8.13;1.90;;;14.40;99.90;;;;;;4995253;28;20061;-86
2022/09/17 10:40:30;;;;;;;9.00;1.30;;;14.20;99.90;;;;;;4977589;28;20482;-87
2022/09/17 10:43:20;;;;;;;6.90;1.92;;;14.00;99.90;;;;;;5011406;28;20521;-86
2022/09/17 10:45:56;;;;;;;8.50;1.65;;;13.90;99.90;;;;;;5011663;28;20030;-85
2022/09/17 10:48:22;;;;;;;8.88;3.15;;;13.80;99.90;;;;;;5011414;28;20026;-87
2022/09/17 10:50:56;;;;;;;14.13;2.88;;;13.80;99.90;;;;;;4984198;28;20030;-87
2022/09/17 10:54:04;;;;;;;12.55;2.80;;;13.90;99.90;;;;;;5017308;28;20030;-87
2022/09/17 10:56:36;;;;;;;9.95;1.40;;;13.90;99.90;;;;;;4973643;28;20058;-86
2022/09/17 10:59:29;;;;;;;9.38;1.48;;;14.00;99.90;;;;;;4957566;28;20075;-87
2022/09/17 11:02:32;;;;;;;7.43;1.50;;;14.20;99.90;;;;;;5008897;28;20042;-87
2022/09/17 11:05:17;;;;;;;9.35;1.50;;;14.30;99.90;;;;;;5002715;23;20034;-73
2022/09/17 11:07:58;;;;;;;6.57;1.58;;;14.40;99.90;;;;;;5032091;28;20071;-73
2022/09/17 11:10:36;;;;;;;6.78;1.50;;;14.50;99.90;;;;;;5034076;28;20500;-73
2022/09/17 11:13:38;;;;;;;7.47;1.85;;;14.60;99.90;;;;;;5034750;28;20033;-71
2022/09/17 11:16:09;;;;;;;4.80;1.00;;;14.60;99.90;;;;;;5033724;28;20033;-73
2022/09/17 11:18:40;;;;;;;2.17;0.60;;;14.60;98.20;;;;;;5033773;28;20029;-72
2022/09/17 11:21:35;;;;;;;3.05;0.80;;;14.40;97.80;;;;;;5033729;28;20037;-71
2022/09/17 11:24:10;;;;;;;4.35;1.00;;;14.20;98.60;;;;;;5016100;28;20064;-72
2022/09/17 11:26:52;;;;;;;4.82;1.45;;;14.00;99.80;;;;;;5016674;28;20021;-73
2022/09/17 11:29:21;;;;;;;5.68;1.60;;;13.80;99.90;;;;;;5016690;28;20031;-72
2022/09/17 11:32:12;;;;;;;9.18;2.20;;;13.70;99.90;;;;;;5034456;28;20021;-74
2022/09/17 11:34:46;;;;;;;7.38;1.85;;;13.50;99.90;;;;;;5016732;28;20052;-72
2022/09/17 11:37:15;;;;;;;5.15;1.90;;;13.40;99.90;;;;;;5033961;28;20084;-72
2022/09/17 11:40:07;;;;;;;4.90;1.55;;;13.30;99.90;;;;;;5033911;28;20485;-71
2022/09/17 11:42:46;;;;;;;5.35;1.38;;;13.20;99.90;;;;;;5003410;28;20038;-72
2022/09/17 11:45:21;;;;;;;3.45;1.42;;;13.20;99.90;;;;;;5033690;28;20029;-72
2022/09/17 11:48:15;;;;;;;3.33;1.10;;;13.10;99.90;;;;;;5015834;28;20036;-72
2022/09/17 11:50:56;;;;;;;4.25;1.42;;;13.20;99.90;;;;;;5033239;28;20071;-72
2022/09/17 11:53:50;;;;;;;3.17;1.10;;;13.20;99.90;;;;;;5033540;28;20112;-72
2022/09/17 11:56:51;;;;;;;4.70;1.02;;;13.20;99.90;;;;;;5024464;28;20095;-73
2022/09/17 12:00:00;;;;;;;2.80;0.80;;;13.30;99.90;;;;;;5017790;28;20038;-73
2022/09/17 12:02:49;;;;;;;2.47;0.68;;;13.30;99.90;;;;;;5019147;28;20052;-72
2022/09/17 12:05:26;;;;;;;1.98;0.43;;;13.30;99.90;;;;;;5033510;28;20042;-72
2022/09/17 12:07:59;;;;;;;3.53;1.00;;;13.30;99.90;;;;;;5033552;28;20040;-72
2022/09/17 12:10:57;;;;;;;4.90;1.38;;;13.30;99.90;;;;;;5033300;28;20047;-73
2022/09/17 12:13:38;;;;;;;5.28;1.10;;;13.30;99.90;;;;;;5033344;28;20030;-72
2022/09/17 12:16:14;;;;;;;2.50;0.95;;;13.30;99.90;;;;;;5032957;28;20034;-71
2022/09/17 12:18:49;;;;;;;2.65;0.95;;;13.20;99.90;;;;;;5032030;28;20026;-71
2022/09/17 12:21:21;;;;;;;2.65;0.52;;;13.10;99.90;;;;;;5032962;28;20521;-72
2022/09/17 12:24:22;;;;;;;3.55;1.25;;;12.90;99.90;;;;;;5033146;28;20037;-72
2022/09/17 12:26:51;;;;;;;3.53;0.55;;;12.80;99.90;;;;;;5032985;28;20045;-71
2022/09/17 12:29:38;;;;;;;2.10;0.50;;;12.70;99.90;;;;;;5015033;28;20029;-72
2022/09/17 12:32:13;;;;;;;2.25;0.80;;;12.70;99.90;;;;;;5032880;28;20029;-71
2022/09/17 12:35:14;;;;;;;6.50;2.30;;;12.70;99.90;;;;;;5032906;28;20109;-71
2022/09/17 12:38:01;;;;;;;4.65;1.50;;;12.80;99.90;;;;;;5015094;28;20049;-71
2022/09/17 12:40:47;;;;;;;4.80;2.00;;;12.90;99.90;;;;;;5032721;28;20458;-71
2022/09/17 12:43:44;;;;;;;3.17;1.23;;;13.00;99.90;;;;;;5032200;28;20506;-71
2022/09/17 12:46:10;;;;;;;6.65;1.98;;;13.10;99.90;;;;;;5032472;28;20029;-71
2022/09/17 12:49:04;;;;;;;8.52;2.22;;;13.20;99.90;;;;;;5032327;28;20029;-71
2022/09/17 12:51:45;;;;;;;9.45;3.00;;;13.20;99.90;;;;;;5032345;28;20030;-71
2022/09/17 12:54:43;;;;;;;8.10;3.08;;;13.30;99.90;;;;;;5032311;28;20057;-71
2022/09/17 12:57:47;;;;;;;8.63;2.90;;;13.40;99.90;;;;;;5015106;28;20037;-71
2022/09/17 13:00:14;;;;;;;10.07;3.35;;;13.50;99.90;;;;;;5031972;28;20087;-71
2022/09/17 13:02:49;;;;;;;9.73;3.35;;;13.60;99.90;;;;;;5032266;28;20033;-71
2022/09/17 13:05:27;;;;;;;5.60;2.10;;;13.60;99.90;;;;;;5014675;28;20240;-71
2022/09/17 13:08:22;;;;;;;5.53;1.43;;;13.70;99.90;;;;;;5032214;28;20029;-71
2022/09/17 13:10:51;;;;;;;8.45;2.92;;;13.80;99.90;;;;;;5032015;28;20033;-71
2022/09/17 13:13:34;;;;;;;6.78;2.30;;;13.90;99.90;;;;;;5031995;28;20067;-71
2022/09/17 13:16:22;;;;;;;5.70;2.25;;;13.90;99.90;;;;;;5031965;28;20109;-71